sensor_id;sensor_type;location;lat;lon;timestamp;temperature;humidity
24374;DHT22;12498;50.880;12.096;2023-02-15T00:01:41;2.90;99.90
24374;DHT22;12498;50.880;12.096;2023-02-15T00:04:07;2.90;99.90
24374;DHT22;12498;50.880;12.096;2023-02-15T00:06:33;2.90;99.90
24374;DHT22;12498;50.880;12.096;2023-02-15T00:08:59;2.80;99.90
24374;DHT22;12498;50.880;12.096;2023-02-15T00:11:25;3.60;99.90
24374;DHT22;12498;50.880;12.096;2023-02-15T00:14:18;2.70;99.90
24374;DHT22;12498;50.880;12.096;2023-02-15T00:16:44;2.80;99.90
24374;DHT22;12498;50.880;12.096;2023-02-15T00:19:11;3.50;99.90
24374;DHT22;12498;50.880;12.096;2023-02-15T00:21:37;2.80;99.90
24374;DHT22;12498;50.880;12.096;2023-02-15T00:24:04;2.80;99.90
24374;DHT22;12498;50.880;12.096;2023-02-15T00:26:30;2.80;99.90
24374;DHT22;12498;50.880;12.096;2023-02-15T00:28:56;2.80;99.90
24374;DHT22;12498;50.880;12.096;2023-02-15T00:31:24;3.70;99.90
24374;DHT22;12498;50.880;12.096;2023-02-15T00:33:50;2.80;99.90
24374;DHT22;12498;50.880;12.096;2023-02-15T00:36:15;2.80;99.90
24374;DHT22;12498;50.880;12.096;2023-02-15T00:38:41;2.80;99.90
24374;DHT22;12498;50.880;12.096;2023-02-15T00:41:07;2.80;99.90
24374;DHT22;12498;50.880;12.096;2023-02-15T00:43:33;2.80;99.90
24374;DHT22;12498;50.880;12.096;2023-02-15T00:45:59;2.80;99.90
24374;DHT22;12498;50.880;12.096;2023-02-15T00:48:25;2.70;99.90
24374;DHT22;12498;50.880;12.096;2023-02-15T00:51:00;2.80;99.90
24374;DHT22;12498;50.880;12.096;2023-02-15T00:53:26;2.80;99.90
24374;DHT22;12498;50.880;12.096;2023-02-15T00:55:52;2.80;99.90
24374;DHT22;12498;50.880;12.096;2023-02-15T00:58:18;2.80;99.90
24374;DHT22;12498;50.880;12.096;2023-02-15T01:00:44;2.80;99.90
24374;DHT22;12498;50.880;12.096;2023-02-15T01:03:10;2.80;99.90
24374;DHT22;12498;50.880;12.096;2023-02-15T01:05:36;3.00;99.90
24374;DHT22;12498;50.880;12.096;2023-02-15T01:08:02;2.70;99.90
24374;DHT22;12498;50.880;12.096;2023-02-15T01:10:27;2.70;99.90
24374;DHT22;12498;50.880;12.096;2023-02-15T01:12:53;2.70;99.90
24374;DHT22;12498;50.880;12.096;2023-02-15T01:15:19;2.80;99.90
24374;DHT22;12498;50.880;12.096;2023-02-15T01:17:45;2.70;99.90
24374;DHT22;12498;50.880;12.096;2023-02-15T01:20:17;2.90;99.90
24374;DHT22;12498;50.880;12.096;2023-02-15T01:22:42;2.70;99.90
24374;DHT22;12498;50.880;12.096;2023-02-15T01:25:08;2.70;99.90
24374;DHT22;12498;50.880;12.096;2023-02-15T01:27:33;2.60;99.90
24374;DHT22;12498;50.880;12.096;2023-02-15T01:29:59;2.50;99.90
24374;DHT22;12498;50.880;12.096;2023-02-15T01:32:24;2.50;99.90
24374;DHT22;12498;50.880;12.096;2023-02-15T01:34:50;2.50;99.90
24374;DHT22;12498;50.880;12.096;2023-02-15T01:37:15;2.40;99.90
24374;DHT22;12498;50.880;12.096;2023-02-15T01:39:41;2.40;99.90
24374;DHT22;12498;50.880;12.096;2023-02-15T01:42:12;2.40;99.90
24374;DHT22;12498;50.880;12.096;2023-02-15T01:47:14;2.40;99.90
24374;DHT22;12498;50.880;12.096;2023-02-15T01:49:41;2.40;99.90
24374;DHT22;12498;50.880;12.096;2023-02-15T01:52:07;2.30;99.90
24374;DHT22;12498;50.880;12.096;2023-02-15T01:54:35;2.40;99.90
24374;DHT22;12498;50.880;12.096;2023-02-15T01:57:03;2.50;99.90
24374;DHT22;12498;50.880;12.096;2023-02-15T01:59:29;2.40;99.90
24374;DHT22;12498;50.880;12.096;2023-02-15T02:01:57;2.40;99.90
24374;DHT22;12498;50.880;12.096;2023-02-15T02:06:49;2.20;99.90
24374;DHT22;12498;50.880;12.096;2023-02-15T02:09:15;2.30;99.90
24374;DHT22;12498;50.880;12.096;2023-02-15T02:11:41;2.30;99.90
24374;DHT22;12498;50.880;12.096;2023-02-15T02:14:10;2.30;99.90
24374;DHT22;12498;50.880;12.096;2023-02-15T02:39:39;2.30;99.90
24374;DHT22;12498;50.880;12.096;2023-02-15T02:42:09;2.30;99.90
24374;DHT22;12498;50.880;12.096;2023-02-15T02:47:19;2.20;99.90
24374;DHT22;12498;50.880;12.096;2023-02-15T02:49:51;2.20;99.90
24374;DHT22;12498;50.880;12.096;2023-02-15T02:52:37;2.20;99.90
24374;DHT22;12498;50.880;12.096;2023-02-15T02:55:07;2.20;99.90
24374;DHT22;12498;50.880;12.096;2023-02-15T02:57:33;2.90;99.90
24374;DHT22;12498;50.880;12.096;2023-02-15T03:00:00;2.20;99.90
24374;DHT22;12498;50.880;12.096;2023-02-15T03:02:29;2.10;99.90
24374;DHT22;12498;50.880;12.096;2023-02-15T03:04:58;2.10;99.90
24374;DHT22;12498;50.880;12.096;2023-02-15T03:07:28;2.20;99.90
24374;DHT22;12498;50.880;12.096;2023-02-15T03:09:56;2.20;99.90
24374;DHT22;12498;50.880;12.096;2023-02-15T03:12:32;2.20;99.90
24374;DHT22;12498;50.880;12.096;2023-02-15T03:17:24;2.20;99.90
24374;DHT22;12498;50.880;12.096;2023-02-15T03:19:51;2.40;99.90
24374;DHT22;12498;50.880;12.096;2023-02-15T03:22:19;2.10;99.90
24374;DHT22;12498;50.880;12.096;2023-02-15T03:27:14;2.10;99.90
24374;DHT22;12498;50.880;12.096;2023-02-15T03:29:43;2.20;99.90
24374;DHT22;12498;50.880;12.096;2023-02-15T03:32:09;2.10;99.90
24374;DHT22;12498;50.880;12.096;2023-02-15T03:34:36;2.10;99.90
24374;DHT22;12498;50.880;12.096;2023-02-15T03:39:56;2.20;99.90
24374;DHT22;12498;50.880;12.096;2023-02-15T03:42:44;2.20;99.90
24374;DHT22;12498;50.880;12.096;2023-02-15T03:45:11;2.20;99.90
24374;DHT22;12498;50.880;12.096;2023-02-15T03:47:40;2.10;99.90
24374;DHT22;12498;50.880;12.096;2023-02-15T03:50:08;2.10;99.90
24374;DHT22;12498;50.880;12.096;2023-02-15T03:52:55;2.10;99.90
24374;DHT22;12498;50.880;12.096;2023-02-15T03:55:22;2.10;99.90
24374;DHT22;12498;50.880;12.096;2023-02-15T03:57:48;2.20;99.90
24374;DHT22;12498;50.880;12.096;2023-02-15T04:00:33;2.00;99.90
24374;DHT22;12498;50.880;12.096;2023-02-15T04:03:22;2.10;99.90
24374;DHT22;12498;50.880;12.096;2023-02-15T04:05:48;2.90;99.90
24374;DHT22;12498;50.880;12.096;2023-02-15T04:08:14;2.00;99.90
24374;DHT22;12498;50.880;12.096;2023-02-15T04:10:39;2.10;99.90
24374;DHT22;12498;50.880;12.096;2023-02-15T04:13:21;2.10;99.90
24374;DHT22;12498;50.880;12.096;2023-02-15T04:15:47;2.10;99.90
24374;DHT22;12498;50.880;12.096;2023-02-15T04:21:14;2.10;99.90
24374;DHT22;12498;50.880;12.096;2023-02-15T04:23:59;2.10;99.90
24374;DHT22;12498;50.880;12.096;2023-02-15T04:26:43;2.10;99.90
24374;DHT22;12498;50.880;12.096;2023-02-15T04:29:08;2.30;99.90
24374;DHT22;12498;50.880;12.096;2023-02-15T04:31:34;2.20;99.90
24374;DHT22;12498;50.880;12.096;2023-02-15T04:33:59;2.10;99.90
24374;DHT22;12498;50.880;12.096;2023-02-15T04:36:25;2.00;99.90
24374;DHT22;12498;50.880;12.096;2023-02-15T04:38:51;2.00;99.90
24374;DHT22;12498;50.880;12.096;2023-02-15T04:41:16;2.00;99.90
24374;DHT22;12498;50.880;12.096;2023-02-15T04:43:42;1.90;99.90
24374;DHT22;12498;50.880;12.096;2023-02-15T04:46:08;2.00;99.90
24374;DHT22;12498;50.880;12.096;2023-02-15T04:48:33;2.00;99.90
24374;DHT22;12498;50.880;12.096;2023-02-15T04:50:59;2.00;99.90
24374;DHT22;12498;50.880;12.096;2023-02-15T04:53:24;2.00;99.90
24374;DHT22;12498;50.880;12.096;2023-02-15T04:55:50;1.90;99.90
24374;DHT22;12498;50.880;12.096;2023-02-15T04:58:15;1.90;99.90
24374;DHT22;12498;50.880;12.096;2023-02-15T05:00:41;2.00;99.90
24374;DHT22;12498;50.880;12.096;2023-02-15T05:03:06;1.80;99.90
24374;DHT22;12498;50.880;12.096;2023-02-15T05:05:32;1.90;99.90
24374;DHT22;12498;50.880;12.096;2023-02-15T05:07:57;1.90;99.90
24374;DHT22;12498;50.880;12.096;2023-02-15T05:10:23;1.80;99.90
24374;DHT22;12498;50.880;12.096;2023-02-15T05:12:48;1.90;99.90
24374;DHT22;12498;50.880;12.096;2023-02-15T05:15:14;1.80;99.90
24374;DHT22;12498;50.880;12.096;2023-02-15T05:17:39;1.80;99.90
24374;DHT22;12498;50.880;12.096;2023-02-15T05:20:05;1.80;99.90
24374;DHT22;12498;50.880;12.096;2023-02-15T05:22:30;1.90;99.90
24374;DHT22;12498;50.880;12.096;2023-02-15T05:24:56;1.80;99.90
24374;DHT22;12498;50.880;12.096;2023-02-15T05:27:40;1.80;99.90
24374;DHT22;12498;50.880;12.096;2023-02-15T05:30:24;1.80;99.90
24374;DHT22;12498;50.880;12.096;2023-02-15T05:32:50;1.70;99.90
24374;DHT22;12498;50.880;12.096;2023-02-15T05:35:15;1.70;99.90
24374;DHT22;12498;50.880;12.096;2023-02-15T05:37:41;1.70;99.90
24374;DHT22;12498;50.880;12.096;2023-02-15T05:40:06;1.60;99.90
24374;DHT22;12498;50.880;12.096;2023-02-15T05:42:32;1.60;99.90
24374;DHT22;12498;50.880;12.096;2023-02-15T05:44:58;1.60;99.90
24374;DHT22;12498;50.880;12.096;2023-02-15T05:47:23;1.60;99.90
24374;DHT22;12498;50.880;12.096;2023-02-15T05:49:49;1.70;99.90
24374;DHT22;12498;50.880;12.096;2023-02-15T05:52:14;1.70;99.90
24374;DHT22;12498;50.880;12.096;2023-02-15T05:54:40;1.70;99.90
24374;DHT22;12498;50.880;12.096;2023-02-15T05:57:05;1.60;99.90
24374;DHT22;12498;50.880;12.096;2023-02-15T05:59:31;1.60;99.90
24374;DHT22;12498;50.880;12.096;2023-02-15T06:01:56;1.60;99.90
24374;DHT22;12498;50.880;12.096;2023-02-15T06:04:22;1.60;99.90
24374;DHT22;12498;50.880;12.096;2023-02-15T06:06:47;1.60;99.90
24374;DHT22;12498;50.880;12.096;2023-02-15T06:09:13;1.60;99.90
24374;DHT22;12498;50.880;12.096;2023-02-15T06:11:39;1.60;99.90
24374;DHT22;12498;50.880;12.096;2023-02-15T06:14:05;1.40;99.90
24374;DHT22;12498;50.880;12.096;2023-02-15T06:16:30;1.60;99.90
24374;DHT22;12498;50.880;12.096;2023-02-15T06:18:56;1.60;99.90
24374;DHT22;12498;50.880;12.096;2023-02-15T06:21:22;1.60;99.90
24374;DHT22;12498;50.880;12.096;2023-02-15T06:23:47;1.60;99.90
24374;DHT22;12498;50.880;12.096;2023-02-15T06:26:13;1.70;99.90
24374;DHT22;12498;50.880;12.096;2023-02-15T06:28:38;2.50;99.90
24374;DHT22;12498;50.880;12.096;2023-02-15T06:31:06;1.70;99.90
24374;DHT22;12498;50.880;12.096;2023-02-15T06:33:32;-0.60;99.90
24374;DHT22;12498;50.880;12.096;2023-02-15T06:35:59;1.70;99.90
24374;DHT22;12498;50.880;12.096;2023-02-15T06:38:25;1.70;97.90
24374;DHT22;12498;50.880;12.096;2023-02-15T06:40:50;1.70;98.90
24374;DHT22;12498;50.880;12.096;2023-02-15T06:43:16;1.70;99.70
24374;DHT22;12498;50.880;12.096;2023-02-15T06:45:41;1.80;96.70
24374;DHT22;12498;50.880;12.096;2023-02-15T06:48:07;1.80;93.90
24374;DHT22;12498;50.880;12.096;2023-02-15T06:50:33;1.80;92.20
24374;DHT22;12498;50.880;12.096;2023-02-15T06:52:59;1.80;92.30
24374;DHT22;12498;50.880;12.096;2023-02-15T06:55:25;1.80;92.90
24374;DHT22;12498;50.880;12.096;2023-02-15T06:57:50;1.60;91.70
24374;DHT22;12498;50.880;12.096;2023-02-15T07:00:16;1.60;99.90
24374;DHT22;12498;50.880;12.096;2023-02-15T07:02:43;1.90;99.90
24374;DHT22;12498;50.880;12.096;2023-02-15T07:05:08;1.90;99.90
24374;DHT22;12498;50.880;12.096;2023-02-15T07:07:34;1.90;99.90
24374;DHT22;12498;50.880;12.096;2023-02-15T07:09:59;1.90;99.90
24374;DHT22;12498;50.880;12.096;2023-02-15T07:12:25;1.90;99.90
24374;DHT22;12498;50.880;12.096;2023-02-15T07:15:10;1.90;99.90
24374;DHT22;12498;50.880;12.096;2023-02-15T07:17:36;1.70;99.90
24374;DHT22;12498;50.880;12.096;2023-02-15T07:20:09;4.00;99.90
24374;DHT22;12498;50.880;12.096;2023-02-15T07:22:35;4.70;99.90
24374;DHT22;12498;50.880;12.096;2023-02-15T07:25:02;4.30;99.90
24374;DHT22;12498;50.880;12.096;2023-02-15T07:27:27;4.80;99.90
24374;DHT22;12498;50.880;12.096;2023-02-15T07:29:53;4.80;99.90
24374;DHT22;12498;50.880;12.096;2023-02-15T07:32:19;4.90;99.90
24374;DHT22;12498;50.880;12.096;2023-02-15T07:34:44;5.00;99.90
24374;DHT22;12498;50.880;12.096;2023-02-15T07:37:10;4.60;99.90
24374;DHT22;12498;50.880;12.096;2023-02-15T07:39:35;4.90;99.90
24374;DHT22;12498;50.880;12.096;2023-02-15T07:42:01;4.70;99.90
24374;DHT22;12498;50.880;12.096;2023-02-15T07:44:26;4.50;99.90
24374;DHT22;12498;50.880;12.096;2023-02-15T07:46:52;4.60;99.80
24374;DHT22;12498;50.880;12.096;2023-02-15T07:49:17;4.40;23.70
24374;DHT22;12498;50.880;12.096;2023-02-15T07:51:43;4.60;85.20
24374;DHT22;12498;50.880;12.096;2023-02-15T07:54:08;4.70;35.80
24374;DHT22;12498;50.880;12.096;2023-02-15T07:56:34;4.80;23.30
24374;DHT22;12498;50.880;12.096;2023-02-15T07:58:59;4.70;30.40
24374;DHT22;12498;50.880;12.096;2023-02-15T08:01:32;5.00;26.10
24374;DHT22;12498;50.880;12.096;2023-02-15T08:03:58;5.10;18.80
24374;DHT22;12498;50.880;12.096;2023-02-15T08:06:24;5.00;16.00
24374;DHT22;12498;50.880;12.096;2023-02-15T08:08:50;5.10;11.60
24374;DHT22;12498;50.880;12.096;2023-02-15T08:11:20;5.30;2.70
24374;DHT22;12498;50.880;12.096;2023-02-15T08:16:29;5.20;1.00
24374;DHT22;12498;50.880;12.096;2023-02-15T08:18:55;5.10;1.00
24374;DHT22;12498;50.880;12.096;2023-02-15T08:21:20;5.10;1.00
24374;DHT22;12498;50.880;12.096;2023-02-15T08:23:46;5.30;1.00
24374;DHT22;12498;50.880;12.096;2023-02-15T08:26:12;5.10;5.50
24374;DHT22;12498;50.880;12.096;2023-02-15T08:28:38;5.20;12.20
24374;DHT22;12498;50.880;12.096;2023-02-15T08:31:04;5.10;19.50
24374;DHT22;12498;50.880;12.096;2023-02-15T08:33:30;5.30;34.10
24374;DHT22;12498;50.880;12.096;2023-02-15T08:35:55;5.40;13.30
24374;DHT22;12498;50.880;12.096;2023-02-15T08:38:21;5.10;26.40
24374;DHT22;12498;50.880;12.096;2023-02-15T08:40:46;5.20;19.30
24374;DHT22;12498;50.880;12.096;2023-02-15T08:43:12;4.60;36.10
24374;DHT22;12498;50.880;12.096;2023-02-15T08:45:37;4.90;28.20
24374;DHT22;12498;50.880;12.096;2023-02-15T08:48:03;5.00;32.50
24374;DHT22;12498;50.880;12.096;2023-02-15T08:50:28;5.20;17.50
24374;DHT22;12498;50.880;12.096;2023-02-15T08:52:54;5.20;25.90
24374;DHT22;12498;50.880;12.096;2023-02-15T08:55:20;5.10;26.70
24374;DHT22;12498;50.880;12.096;2023-02-15T08:57:46;5.30;26.10
24374;DHT22;12498;50.880;12.096;2023-02-15T09:00:13;5.40;31.30
24374;DHT22;12498;50.880;12.096;2023-02-15T09:02:38;5.40;36.20
24374;DHT22;12498;50.880;12.096;2023-02-15T09:05:04;5.40;27.00
24374;DHT22;12498;50.880;12.096;2023-02-15T09:07:30;5.20;34.60
24374;DHT22;12498;50.880;12.096;2023-02-15T09:09:55;5.30;35.30
24374;DHT22;12498;50.880;12.096;2023-02-15T09:12:21;5.10;48.80
24374;DHT22;12498;50.880;12.096;2023-02-15T09:14:46;5.50;51.80
24374;DHT22;12498;50.880;12.096;2023-02-15T09:17:12;4.90;51.30
24374;DHT22;12498;50.880;12.096;2023-02-15T09:19:37;4.90;51.80
24374;DHT22;12498;50.880;12.096;2023-02-15T09:22:03;5.70;46.80
24374;DHT22;12498;50.880;12.096;2023-02-15T09:24:31;5.10;47.00
24374;DHT22;12498;50.880;12.096;2023-02-15T09:26:56;8.50;43.50
24374;DHT22;12498;50.880;12.096;2023-02-15T09:29:22;5.80;43.00
24374;DHT22;12498;50.880;12.096;2023-02-15T09:31:48;5.90;33.40
24374;DHT22;12498;50.880;12.096;2023-02-15T09:34:15;6.20;49.20
24374;DHT22;12498;50.880;12.096;2023-02-15T09:36:42;6.10;45.90
24374;DHT22;12498;50.880;12.096;2023-02-15T09:39:12;6.10;29.80
24374;DHT22;12498;50.880;12.096;2023-02-15T09:41:46;5.90;22.00
24374;DHT22;12498;50.880;12.096;2023-02-15T09:44:32;5.70;41.40
24374;DHT22;12498;50.880;12.096;2023-02-15T09:47:14;5.40;24.60
24374;DHT22;12498;50.880;12.096;2023-02-15T10:00:02;5.40;23.00
24374;DHT22;12498;50.880;12.096;2023-02-15T10:05:26;5.50;49.10
24374;DHT22;12498;50.880;12.096;2023-02-15T10:07:58;5.60;47.20
24374;DHT22;12498;50.880;12.096;2023-02-15T10:10:37;5.60;45.60
24374;DHT22;12498;50.880;12.096;2023-02-15T10:18:30;5.80;34.70
24374;DHT22;12498;50.880;12.096;2023-02-15T10:28:56;6.30;26.20
24374;DHT22;12498;50.880;12.096;2023-02-15T10:34:12;6.50;40.40
24374;DHT22;12498;50.880;12.096;2023-02-15T10:56:39;7.30;42.50
24374;DHT22;12498;50.880;12.096;2023-02-15T11:01:44;7.70;53.10
24374;DHT22;12498;50.880;12.096;2023-02-15T11:07:17;8.00;96.40
24374;DHT22;12498;50.880;12.096;2023-02-15T11:09:46;8.20;95.00
24374;DHT22;12498;50.880;12.096;2023-02-15T11:12:14;8.20;98.70
24374;DHT22;12498;50.880;12.096;2023-02-15T11:14:44;8.30;99.90
24374;DHT22;12498;50.880;12.096;2023-02-15T11:17:12;8.40;99.90
24374;DHT22;12498;50.880;12.096;2023-02-15T11:19:48;8.60;99.90
24374;DHT22;12498;50.880;12.096;2023-02-15T11:22:16;8.70;99.90
24374;DHT22;12498;50.880;12.096;2023-02-15T11:24:42;8.90;99.90
24374;DHT22;12498;50.880;12.096;2023-02-15T11:29:53;9.10;99.90
24374;DHT22;12498;50.880;12.096;2023-02-15T11:32:21;9.20;99.90
24374;DHT22;12498;50.880;12.096;2023-02-15T11:37:18;9.40;99.90
24374;DHT22;12498;50.880;12.096;2023-02-15T11:39:44;9.60;99.90
24374;DHT22;12498;50.880;12.096;2023-02-15T11:42:18;9.70;99.90
24374;DHT22;12498;50.880;12.096;2023-02-15T11:47:17;9.80;99.90
24374;DHT22;12498;50.880;12.096;2023-02-15T11:49:43;9.50;99.90
24374;DHT22;12498;50.880;12.096;2023-02-15T11:52:13;9.90;99.90
24374;DHT22;12498;50.880;12.096;2023-02-15T11:54:43;10.00;99.90
24374;DHT22;12498;50.880;12.096;2023-02-15T11:57:32;10.00;99.90
24374;DHT22;12498;50.880;12.096;2023-02-15T12:00:14;10.20;99.90
24374;DHT22;12498;50.880;12.096;2023-02-15T12:02:44;10.20;99.90
24374;DHT22;12498;50.880;12.096;2023-02-15T12:05:14;10.20;99.90
24374;DHT22;12498;50.880;12.096;2023-02-15T12:07:42;10.30;99.90
24374;DHT22;12498;50.880;12.096;2023-02-15T12:10:17;10.30;99.90
24374;DHT22;12498;50.880;12.096;2023-02-15T12:12:43;10.40;99.90
24374;DHT22;12498;50.880;12.096;2023-02-15T12:15:12;10.50;99.90
24374;DHT22;12498;50.880;12.096;2023-02-15T12:20:06;10.60;99.90
24374;DHT22;12498;50.880;12.096;2023-02-15T12:22:33;10.60;99.90
24374;DHT22;12498;50.880;12.096;2023-02-15T12:25:00;10.60;99.90
24374;DHT22;12498;50.880;12.096;2023-02-15T12:27:27;10.70;99.90
24374;DHT22;12498;50.880;12.096;2023-02-15T12:30:36;10.80;99.90
24374;DHT22;12498;50.880;12.096;2023-02-15T12:32:53;10.80;99.90
24374;DHT22;12498;50.880;12.096;2023-02-15T12:35:30;10.90;99.90
24374;DHT22;12498;50.880;12.096;2023-02-15T12:37:57;10.90;99.90
24374;DHT22;12498;50.880;12.096;2023-02-15T12:40:26;11.00;99.90
24374;DHT22;12498;50.880;12.096;2023-02-15T12:42:53;11.00;99.90
24374;DHT22;12498;50.880;12.096;2023-02-15T12:45:23;11.10;99.90
24374;DHT22;12498;50.880;12.096;2023-02-15T12:50:33;11.20;99.90
24374;DHT22;12498;50.880;12.096;2023-02-15T12:53:06;11.30;99.40
24374;DHT22;12498;50.880;12.096;2023-02-15T12:55:32;11.30;99.40
24374;DHT22;12498;50.880;12.096;2023-02-15T12:58:08;11.30;99.10
24374;DHT22;12498;50.880;12.096;2023-02-15T13:00:33;11.40;98.60
24374;DHT22;12498;50.880;12.096;2023-02-15T13:03:00;11.40;98.40
24374;DHT22;12498;50.880;12.096;2023-02-15T13:08:03;11.40;98.10
24374;DHT22;12498;50.880;12.096;2023-02-15T13:10:37;11.40;97.90
24374;DHT22;12498;50.880;12.096;2023-02-15T13:13:11;11.50;97.70
24374;DHT22;12498;50.880;12.096;2023-02-15T13:15:37;11.60;96.70
24374;DHT22;12498;50.880;12.096;2023-02-15T13:18:04;11.60;96.90
24374;DHT22;12498;50.880;12.096;2023-02-15T13:20:30;11.60;97.10
24374;DHT22;12498;50.880;12.096;2023-02-15T13:22:58;11.60;96.90
24374;DHT22;12498;50.880;12.096;2023-02-15T13:25:25;11.70;97.10
24374;DHT22;12498;50.880;12.096;2023-02-15T13:27:52;11.70;97.00
24374;DHT22;12498;50.880;12.096;2023-02-15T13:32:45;11.70;96.10
24374;DHT22;12498;50.880;12.096;2023-02-15T13:35:14;11.70;96.00
24374;DHT22;12498;50.880;12.096;2023-02-15T13:43:18;11.80;95.70
24374;DHT22;12498;50.880;12.096;2023-02-15T13:48:24;11.80;95.40
24374;DHT22;12498;50.880;12.096;2023-02-15T14:01:21;11.80;95.00
24374;DHT22;12498;50.880;12.096;2023-02-15T14:03:55;11.70;94.90
24374;DHT22;12498;50.880;12.096;2023-02-15T14:14:36;11.80;94.80
24374;DHT22;12498;50.880;12.096;2023-02-15T14:17:07;11.80;94.30
24374;DHT22;12498;50.880;12.096;2023-02-15T14:19:39;11.80;94.50
24374;DHT22;12498;50.880;12.096;2023-02-15T14:22:10;11.80;94.50
24374;DHT22;12498;50.880;12.096;2023-02-15T14:27:09;11.80;93.80
24374;DHT22;12498;50.880;12.096;2023-02-15T14:32:11;11.70;93.90
24374;DHT22;12498;50.880;12.096;2023-02-15T14:34:43;11.70;94.20
24374;DHT22;12498;50.880;12.096;2023-02-15T14:37:10;11.70;94.00
24374;DHT22;12498;50.880;12.096;2023-02-15T14:39:44;11.80;94.20
24374;DHT22;12498;50.880;12.096;2023-02-15T14:45:02;11.70;93.80
24374;DHT22;12498;50.880;12.096;2023-02-15T14:47:37;11.70;93.70
24374;DHT22;12498;50.880;12.096;2023-02-15T14:50:50;11.70;93.40
24374;DHT22;12498;50.880;12.096;2023-02-15T14:55:35;11.60;93.20
24374;DHT22;12498;50.880;12.096;2023-02-15T14:58:01;11.70;92.90
24374;DHT22;12498;50.880;12.096;2023-02-15T15:00:32;11.70;92.90
24374;DHT22;12498;50.880;12.096;2023-02-15T15:03:00;11.70;92.90
24374;DHT22;12498;50.880;12.096;2023-02-15T15:05:29;11.60;92.70
24374;DHT22;12498;50.880;12.096;2023-02-15T15:07:58;11.60;92.80
24374;DHT22;12498;50.880;12.096;2023-02-15T15:12:51;11.60;92.90
24374;DHT22;12498;50.880;12.096;2023-02-15T15:17:56;11.60;92.90
24374;DHT22;12498;50.880;12.096;2023-02-15T15:22:50;11.50;93.10
24374;DHT22;12498;50.880;12.096;2023-02-15T15:25:41;11.50;93.30
24374;DHT22;12498;50.880;12.096;2023-02-15T15:28:07;11.50;93.50
24374;DHT22;12498;50.880;12.096;2023-02-15T15:32:59;11.40;93.70
24374;DHT22;12498;50.880;12.096;2023-02-15T15:46:12;11.20;92.90
24374;DHT22;12498;50.880;12.096;2023-02-15T15:48:42;11.10;93.30
24374;DHT22;12498;50.880;12.096;2023-02-15T15:53:43;10.90;93.60
24374;DHT22;12498;50.880;12.096;2023-02-15T15:56:13;10.80;93.80
24374;DHT22;12498;50.880;12.096;2023-02-15T15:58:44;10.80;93.80
24374;DHT22;12498;50.880;12.096;2023-02-15T16:01:11;10.70;93.80
24374;DHT22;12498;50.880;12.096;2023-02-15T16:03:38;11.00;94.10
24374;DHT22;12498;50.880;12.096;2023-02-15T16:06:26;10.50;93.80
24374;DHT22;12498;50.880;12.096;2023-02-15T16:08:52;10.50;93.80
24374;DHT22;12498;50.880;12.096;2023-02-15T16:11:19;10.40;94.00
24374;DHT22;12498;50.880;12.096;2023-02-15T16:13:46;10.30;93.70
24374;DHT22;12498;50.880;12.096;2023-02-15T16:16:12;10.20;93.80
24374;DHT22;12498;50.880;12.096;2023-02-15T16:18:38;10.10;94.20
24374;DHT22;12498;50.880;12.096;2023-02-15T16:21:30;10.10;94.30
24374;DHT22;12498;50.880;12.096;2023-02-15T16:23:59;9.90;94.80
24374;DHT22;12498;50.880;12.096;2023-02-15T16:29:00;9.70;95.40
24374;DHT22;12498;50.880;12.096;2023-02-15T16:31:26;9.60;95.30
24374;DHT22;12498;50.880;12.096;2023-02-15T16:33:52;9.50;95.40
24374;DHT22;12498;50.880;12.096;2023-02-15T16:36:22;9.40;95.70
24374;DHT22;12498;50.880;12.096;2023-02-15T16:41:20;9.20;95.90
24374;DHT22;12498;50.880;12.096;2023-02-15T16:43:47;9.20;96.20
24374;DHT22;12498;50.880;12.096;2023-02-15T16:46:35;9.10;96.70
24374;DHT22;12498;50.880;12.096;2023-02-15T16:49:00;9.00;97.00
24374;DHT22;12498;50.880;12.096;2023-02-15T16:51:28;8.90;97.20
24374;DHT22;12498;50.880;12.096;2023-02-15T16:53:54;8.80;97.40
24374;DHT22;12498;50.880;12.096;2023-02-15T16:56:24;8.70;97.70
24374;DHT22;12498;50.880;12.096;2023-02-15T16:58:50;8.70;97.70
24374;DHT22;12498;50.880;12.096;2023-02-15T17:01:17;8.60;98.30
24374;DHT22;12498;50.880;12.096;2023-02-15T17:03:45;8.20;98.50
24374;DHT22;12498;50.880;12.096;2023-02-15T17:08:48;8.30;99.20
24374;DHT22;12498;50.880;12.096;2023-02-15T17:11:15;8.30;99.70
24374;DHT22;12498;50.880;12.096;2023-02-15T17:16:28;8.10;99.90
24374;DHT22;12498;50.880;12.096;2023-02-15T17:18:55;8.00;99.90
24374;DHT22;12498;50.880;12.096;2023-02-15T17:21:24;8.00;99.90
24374;DHT22;12498;50.880;12.096;2023-02-15T17:23:51;7.90;99.90
24374;DHT22;12498;50.880;12.096;2023-02-15T17:28:46;7.80;99.90
24374;DHT22;12498;50.880;12.096;2023-02-15T17:31:13;7.70;99.90
24374;DHT22;12498;50.880;12.096;2023-02-15T17:33:40;7.70;99.90
24374;DHT22;12498;50.880;12.096;2023-02-15T17:36:07;7.60;99.90
24374;DHT22;12498;50.880;12.096;2023-02-15T17:38:40;7.50;99.90
24374;DHT22;12498;50.880;12.096;2023-02-15T17:41:06;7.50;99.90
24374;DHT22;12498;50.880;12.096;2023-02-15T17:43:31;7.40;99.90
24374;DHT22;12498;50.880;12.096;2023-02-15T17:45:57;7.40;99.90
24374;DHT22;12498;50.880;12.096;2023-02-15T17:51:03;7.30;99.90
24374;DHT22;12498;50.880;12.096;2023-02-15T17:53:29;7.20;99.90
24374;DHT22;12498;50.880;12.096;2023-02-15T17:55:56;7.10;99.90
24374;DHT22;12498;50.880;12.096;2023-02-15T17:58:22;7.10;99.90
24374;DHT22;12498;50.880;12.096;2023-02-15T18:00:51;7.10;99.90
24374;DHT22;12498;50.880;12.096;2023-02-15T18:03:43;7.00;99.90
24374;DHT22;12498;50.880;12.096;2023-02-15T18:06:27;6.90;99.90
24374;DHT22;12498;50.880;12.096;2023-02-15T18:09:13;6.80;99.90
24374;DHT22;12498;50.880;12.096;2023-02-15T18:11:57;7.00;99.90
24374;DHT22;12498;50.880;12.096;2023-02-15T18:14:22;6.70;81.60
24374;DHT22;12498;50.880;12.096;2023-02-15T18:16:48;6.60;42.30
24374;DHT22;12498;50.880;12.096;2023-02-15T18:19:15;7.10;42.90
24374;DHT22;12498;50.880;12.096;2023-02-15T18:21:41;7.00;40.70
24374;DHT22;12498;50.880;12.096;2023-02-15T18:24:18;6.20;37.30
24374;DHT22;12498;50.880;12.096;2023-02-15T18:26:43;6.40;34.50
24374;DHT22;12498;50.880;12.096;2023-02-15T18:29:09;6.40;18.60
24374;DHT22;12498;50.880;12.096;2023-02-15T18:31:35;6.30;25.20
24374;DHT22;12498;50.880;12.096;2023-02-15T18:34:01;6.80;23.00
24374;DHT22;12498;50.880;12.096;2023-02-15T18:36:31;6.20;20.50
24374;DHT22;12498;50.880;12.096;2023-02-15T18:38:57;6.20;17.40
24374;DHT22;12498;50.880;12.096;2023-02-15T18:41:23;6.20;2.50
24374;DHT22;12498;50.880;12.096;2023-02-15T18:43:49;6.10;1.00
24374;DHT22;12498;50.880;12.096;2023-02-15T18:46:15;6.10;1.00
24374;DHT22;12498;50.880;12.096;2023-02-15T18:48:41;6.00;1.00